createdAt,value
2023-04-05T00:01:50.244Z,51.45
2023-04-05T00:04:21.184Z,51.87
2023-04-05T00:06:52.886Z,51.62
2023-04-05T00:09:22.833Z,51.86
2023-04-05T00:11:53.803Z,51.57
2023-04-05T00:14:23.239Z,51.60
2023-04-05T00:16:52.775Z,51.67
2023-04-05T00:19:23.306Z,51.34
2023-04-05T00:21:54.579Z,51.43
2023-04-05T00:24:24.411Z,51.37
2023-04-05T00:26:54.969Z,51.70
2023-04-05T00:29:24.483Z,51.68
2023-04-05T00:31:53.632Z,51.28
2023-04-05T00:34:23.192Z,51.82
2023-04-05T00:36:52.417Z,51.79
2023-04-05T00:39:21.932Z,51.94
2023-04-05T00:41:51.077Z,52.30
2023-04-05T00:44:21.841Z,52.05
2023-04-05T00:46:51.300Z,51.54
2023-04-05T00:49:20.855Z,52.17
2023-04-05T00:51:51.013Z,51.92
2023-04-05T00:54:20.833Z,52.23
2023-04-05T00:56:53.207Z,52.27
2023-04-05T00:59:24.444Z,52.19
2023-04-05T01:02:02.692Z,52.00
2023-04-05T01:04:36.779Z,52.34
2023-04-05T01:07:14.302Z,52.04
2023-04-05T01:09:52.670Z,52.35
2023-04-05T01:12:25.172Z,52.59
2023-04-05T01:14:57.222Z,52.42
2023-04-05T01:17:28.785Z,52.00
2023-04-05T01:20:00.614Z,52.02
2023-04-05T01:23:21.103Z,52.38
2023-04-05T01:26:24.226Z,52.41
2023-04-05T01:29:12.021Z,52.56
2023-04-05T01:31:51.209Z,52.44
2023-04-05T01:34:27.543Z,53.04
2023-04-05T01:36:59.107Z,52.38
2023-04-05T01:39:30.273Z,52.58
2023-04-05T01:42:01.568Z,52.50
2023-04-05T01:44:30.954Z,52.81
2023-04-05T01:47:01.814Z,53.12
2023-04-05T01:49:31.029Z,52.74
2023-04-05T01:52:00.954Z,52.29
2023-04-05T01:54:31.063Z,52.49
2023-04-05T01:57:02.291Z,52.96
2023-04-05T01:59:32.811Z,52.78
2023-04-05T02:02:04.232Z,52.56
2023-04-05T02:04:33.430Z,53.01
2023-04-05T02:07:03.102Z,52.78
2023-04-05T02:09:32.370Z,52.29
2023-04-05T02:12:01.735Z,52.89
2023-04-05T02:14:31.368Z,53.47
2023-04-05T02:17:03.309Z,52.72
2023-04-05T02:19:40.994Z,52.99
2023-04-05T02:22:11.385Z,52.48
2023-04-05T02:24:40.349Z,53.14
2023-04-05T02:27:09.733Z,53.00
2023-04-05T02:29:39.217Z,52.70
2023-04-05T02:32:10.168Z,53.33
2023-04-05T02:34:41.369Z,52.73
2023-04-05T02:37:10.815Z,53.40
2023-04-05T02:39:40.029Z,53.81
2023-04-05T02:42:09.456Z,53.67
2023-04-05T02:44:38.523Z,53.40
2023-04-05T02:47:09.441Z,52.51
2023-04-05T02:49:38.886Z,52.78
2023-04-05T02:52:09.315Z,53.76
2023-04-05T02:54:41.050Z,53.38
2023-04-05T02:57:12.354Z,53.21
2023-04-05T02:59:52.169Z,53.50
2023-04-05T03:02:25.261Z,53.47
2023-04-05T03:04:55.471Z,52.95
2023-04-05T03:07:25.643Z,53.91
2023-04-05T03:09:55.693Z,54.40
2023-04-05T03:12:25.362Z,54.35
2023-04-05T03:14:55.206Z,54.48
2023-04-05T03:17:27.945Z,53.93
2023-04-05T03:20:09.134Z,53.25
2023-04-05T03:22:39.602Z,54.41
2023-04-05T03:25:09.736Z,53.77
2023-04-05T03:27:52.976Z,54.12
2023-04-05T03:30:23.356Z,54.16
2023-04-05T03:33:01.664Z,53.37
2023-04-05T03:35:46.801Z,53.21
2023-04-05T03:38:16.884Z,53.07
2023-04-05T03:41:04.826Z,54.39
2023-04-05T03:43:37.926Z,53.85
2023-04-05T03:46:08.165Z,53.72
2023-04-05T03:48:39.131Z,54.07
2023-04-05T03:51:08.487Z,53.68
2023-04-05T03:53:37.866Z,53.26
2023-04-05T03:56:07.955Z,53.67
2023-04-05T03:58:51.265Z,52.98
2023-04-05T04:01:25.937Z,54.00
2023-04-05T04:03:57.621Z,53.90
2023-04-05T04:06:27.468Z,53.78
2023-04-05T04:08:57.586Z,53.17
2023-04-05T04:11:27.349Z,52.48
2023-04-05T04:13:57.037Z,54.09
2023-04-05T04:16:38.681Z,54.41
2023-04-05T04:19:34.442Z,53.06
2023-04-05T04:22:10.320Z,52.95
2023-04-05T04:25:04.720Z,53.21
2023-04-05T04:27:36.291Z,54.46
2023-04-05T04:30:28.798Z,53.35
2023-04-05T04:33:29.089Z,55.36
2023-04-05T04:36:26.625Z,54.61
2023-04-05T04:39:18.037Z,54.52
2023-04-05T04:42:06.272Z,54.50
2023-04-05T04:44:58.296Z,55.80
2023-04-05T04:47:53.419Z,54.99
2023-04-05T04:50:41.429Z,55.52
2023-04-05T04:53:13.671Z,54.98
2023-04-05T04:55:43.417Z,56.63
2023-04-05T04:58:12.975Z,56.29
2023-04-05T05:00:45.326Z,56.42
2023-04-05T05:03:14.977Z,56.64
2023-04-05T05:05:45.331Z,55.53
2023-04-05T05:08:19.689Z,56.24
2023-04-05T05:10:53.684Z,55.81
2023-04-05T05:13:23.199Z,55.40
2023-04-05T05:15:53.090Z,55.76
2023-04-05T05:18:22.550Z,56.41
2023-04-05T05:20:53.380Z,55.81
2023-04-05T05:23:25.469Z,55.67
2023-04-05T05:26:00.552Z,56.28
2023-04-05T05:28:30.030Z,56.00
2023-04-05T05:31:02.012Z,56.33
2023-04-05T05:33:31.609Z,56.59
2023-04-05T05:36:00.747Z,56.28
2023-04-05T05:38:31.799Z,56.35
2023-04-05T05:41:01.343Z,56.42
2023-04-05T05:43:31.058Z,56.04
2023-04-05T05:46:03.452Z,56.52
2023-04-05T05:48:33.365Z,55.84
2023-04-05T05:51:09.643Z,57.17
2023-04-05T05:53:41.156Z,56.80
2023-04-05T05:56:10.589Z,57.03
2023-04-05T05:58:40.573Z,55.75
2023-04-05T06:01:12.108Z,56.89
2023-04-05T06:03:41.812Z,56.87
2023-04-05T06:06:11.427Z,56.56
2023-04-05T06:08:42.830Z,56.42
2023-04-05T06:11:19.836Z,56.71
2023-04-05T06:13:50.682Z,56.63
2023-04-05T06:16:20.163Z,56.77
2023-04-05T06:18:49.945Z,56.26
2023-04-05T06:21:19.404Z,55.95
2023-04-05T06:23:50.491Z,56.27
2023-04-05T06:26:20.859Z,56.46
2023-04-05T06:28:50.485Z,56.65
2023-04-05T06:31:21.434Z,55.56
2023-04-05T06:33:51.027Z,55.38
2023-04-05T06:36:20.630Z,55.43
2023-04-05T06:38:51.637Z,55.62
2023-04-05T06:41:21.058Z,55.83
2023-04-05T06:43:50.824Z,55.40
2023-04-05T06:46:20.026Z,55.25
2023-04-05T06:48:50.098Z,55.19
2023-04-05T06:51:19.387Z,55.11
2023-04-05T06:53:50.550Z,55.06
2023-04-05T06:56:19.745Z,54.78
2023-04-05T06:58:49.701Z,54.81
2023-04-05T07:01:19.107Z,54.77
2023-04-05T07:03:48.528Z,54.46
2023-04-05T07:06:17.978Z,54.50
2023-04-05T07:08:47.991Z,54.56
2023-04-05T07:11:18.531Z,54.37
2023-04-05T07:13:48.032Z,54.53
2023-04-05T07:16:19.307Z,54.44
2023-04-05T07:18:48.957Z,54.63
2023-04-05T07:21:18.269Z,54.47
2023-04-05T07:23:47.985Z,54.52
2023-04-05T07:26:18.555Z,54.50
2023-04-05T07:28:48.165Z,54.41
2023-04-05T07:31:17.667Z,53.74
2023-04-05T07:33:47.022Z,54.37
2023-04-05T07:36:16.217Z,54.33
2023-04-05T07:38:46.053Z,54.41
2023-04-05T07:41:16.850Z,54.51
2023-04-05T07:43:47.811Z,54.21
2023-04-05T07:46:17.491Z,54.44
2023-04-05T07:48:48.817Z,54.12
2023-04-05T07:51:18.082Z,54.17
2023-04-05T07:53:48.196Z,53.06
2023-04-05T07:56:17.755Z,53.32
2023-04-05T07:58:50.517Z,53.48
2023-04-05T08:01:19.762Z,53.53
2023-04-05T08:03:49.239Z,52.78
2023-04-05T08:06:18.999Z,53.27
2023-04-05T08:08:49.171Z,52.76
2023-04-05T08:11:18.441Z,52.31
2023-04-05T08:13:49.410Z,52.94
2023-04-05T08:16:18.656Z,52.32
2023-04-05T08:18:48.067Z,52.57
2023-04-05T08:21:17.217Z,52.98
2023-04-05T08:23:46.888Z,53.33
2023-04-05T08:26:16.062Z,52.69
2023-04-05T08:28:45.503Z,52.96
2023-04-05T08:31:16.226Z,53.08
2023-04-05T08:33:45.589Z,52.71
2023-04-05T08:36:14.963Z,53.00
2023-04-05T08:38:44.349Z,53.17
2023-04-05T08:41:19.502Z,53.35
2023-04-05T08:43:59.048Z,53.43
2023-04-05T08:46:32.413Z,53.01
2023-04-05T08:49:06.125Z,53.19
2023-04-05T08:51:39.657Z,52.93
2023-04-05T08:54:10.260Z,52.79
2023-04-05T08:56:41.461Z,53.17
2023-04-05T08:59:13.455Z,52.71
2023-04-05T09:01:49.067Z,53.20
2023-04-05T09:04:22.393Z,52.74
2023-04-05T09:06:52.832Z,52.11
2023-04-05T09:09:23.877Z,52.47
2023-04-05T09:11:53.524Z,52.31
2023-04-05T09:14:23.017Z,52.24
2023-04-05T09:16:53.984Z,52.55
2023-04-05T09:19:23.488Z,52.08
2023-04-05T09:22:03.557Z,51.45
2023-04-05T09:24:41.753Z,51.73
2023-04-05T09:27:12.396Z,51.92
2023-04-05T09:29:43.219Z,51.84
2023-04-05T09:32:14.978Z,52.15
2023-04-05T09:34:45.464Z,52.45
2023-04-05T09:37:23.384Z,52.66
2023-04-05T09:40:02.921Z,52.73
2023-04-05T09:42:44.114Z,52.23
2023-04-05T09:45:14.377Z,52.46
2023-04-05T09:47:58.996Z,52.13
2023-04-05T09:50:29.227Z,52.17
2023-04-05T09:53:09.133Z,52.51
2023-04-05T09:55:40.267Z,52.77
2023-04-05T09:58:14.212Z,52.20
2023-04-05T10:01:03.325Z,52.70
2023-04-05T10:03:50.352Z,52.43
2023-04-05T10:06:19.971Z,52.67
2023-04-05T10:08:49.946Z,52.52
2023-04-05T10:11:21.228Z,52.99
2023-04-05T10:13:51.913Z,52.63
2023-04-05T10:16:25.014Z,52.45
2023-04-05T10:18:55.790Z,52.56
2023-04-05T10:21:29.897Z,52.24
2023-04-05T10:24:07.549Z,52.71
2023-04-05T10:26:47.642Z,52.82
2023-04-05T10:29:25.276Z,52.77
2023-04-05T10:32:01.165Z,52.23
2023-04-05T10:34:38.181Z,53.01
2023-04-05T10:37:08.759Z,53.11
2023-04-05T10:39:46.593Z,53.26
2023-04-05T10:42:21.436Z,53.25
2023-04-05T10:44:55.747Z,52.97
2023-04-05T10:47:29.217Z,53.15
2023-04-05T10:50:06.062Z,53.37
2023-04-05T10:52:37.539Z,52.47
2023-04-05T10:55:08.326Z,52.89
2023-04-05T10:57:39.724Z,53.22
2023-04-05T11:00:13.344Z,52.94
2023-04-05T11:02:43.126Z,52.96
2023-04-05T11:05:37.148Z,52.47
2023-04-05T11:08:08.213Z,52.84
2023-04-05T11:10:40.486Z,50.78
2023-04-05T11:13:13.963Z,52.37
2023-04-05T11:15:43.785Z,52.56
2023-04-05T11:18:21.951Z,52.58
2023-04-05T11:20:56.196Z,52.38
2023-04-05T11:23:27.356Z,52.15
2023-04-05T11:25:59.796Z,52.29
2023-04-05T11:28:32.319Z,51.88
2023-04-05T11:31:16.855Z,52.17
2023-04-05T11:34:11.224Z,52.12
2023-04-05T11:36:48.232Z,51.61
2023-04-05T11:39:28.431Z,50.51
2023-04-05T11:42:13.684Z,51.65
2023-04-05T11:44:46.651Z,52.00
2023-04-05T11:47:21.937Z,52.15
2023-04-05T11:49:53.128Z,51.70
2023-04-05T11:52:24.113Z,51.66
2023-04-05T11:54:54.586Z,51.70
2023-04-05T11:57:25.435Z,51.90
2023-04-05T11:59:57.146Z,52.08
2023-04-05T12:02:26.657Z,51.69
2023-04-05T12:04:58.180Z,51.47
2023-04-05T12:07:32.638Z,51.38
2023-04-05T12:10:04.965Z,51.51
2023-04-05T12:12:40.158Z,51.39
2023-04-05T12:15:12.587Z,51.78
2023-04-05T12:17:46.805Z,51.60
2023-04-05T12:20:19.446Z,51.58
2023-04-05T12:22:52.706Z,51.77
2023-04-05T12:25:22.844Z,50.80
2023-04-05T12:27:52.360Z,51.65
2023-04-05T12:30:23.050Z,50.89
2023-04-05T12:32:54.634Z,51.35
2023-04-05T12:35:31.923Z,52.10
2023-04-05T12:38:05.690Z,51.52
2023-04-05T12:40:37.072Z,51.33
2023-04-05T12:43:08.257Z,51.03
2023-04-05T12:45:41.745Z,51.78
2023-04-05T12:48:13.774Z,51.85
2023-04-05T12:50:46.053Z,50.77
2023-04-05T12:53:21.310Z,51.88
2023-04-05T12:55:52.593Z,52.06
2023-04-05T12:58:22.807Z,51.04
2023-04-05T13:00:52.283Z,51.25
2023-04-05T13:03:23.823Z,51.17
2023-04-05T13:05:53.619Z,51.08
2023-04-05T13:08:24.308Z,51.70
2023-04-05T13:10:55.787Z,50.97
2023-04-05T13:13:27.141Z,51.83
2023-04-05T13:15:56.586Z,51.90
2023-04-05T13:18:26.205Z,50.95
2023-04-05T13:20:55.648Z,51.04
2023-04-05T13:23:26.388Z,51.11
2023-04-05T13:25:56.015Z,50.88
2023-04-05T13:28:26.051Z,51.40
2023-04-05T13:30:55.891Z,51.55
2023-04-05T13:33:25.033Z,51.70
2023-04-05T13:35:54.549Z,51.45
2023-04-05T13:38:25.186Z,51.63
2023-04-05T13:40:54.716Z,51.73
2023-04-05T13:43:23.880Z,51.47
2023-04-05T13:45:53.251Z,51.59
2023-04-05T13:48:22.311Z,51.50
2023-04-05T13:50:52.058Z,51.76
2023-04-05T13:53:21.256Z,51.72
2023-04-05T13:55:53.420Z,51.73
2023-04-05T13:58:22.744Z,51.58
2023-04-05T14:00:53.611Z,51.69
2023-04-05T14:03:23.059Z,51.58
2023-04-05T14:05:54.762Z,52.07
2023-04-05T14:08:24.809Z,51.83
2023-04-05T14:10:56.020Z,52.22
2023-04-05T14:13:25.301Z,51.89
2023-04-05T14:15:54.957Z,51.93
2023-04-05T14:18:24.265Z,52.38
2023-04-05T14:20:53.926Z,51.96
2023-04-05T14:23:23.272Z,51.43
2023-04-05T14:25:54.272Z,52.46
2023-04-05T14:28:23.577Z,52.09
2023-04-05T14:30:53.278Z,52.40
2023-04-05T14:33:23.957Z,52.36
2023-04-05T14:35:53.585Z,52.32
2023-04-05T14:38:22.833Z,52.62
2023-04-05T14:40:52.314Z,51.99
2023-04-05T14:43:23.096Z,52.55
2023-04-05T14:45:52.729Z,52.57
2023-04-05T14:48:21.965Z,52.45
2023-04-05T14:50:51.667Z,52.40
2023-04-05T14:53:21.416Z,51.95
2023-04-05T14:55:51.018Z,52.86
2023-04-05T14:58:21.670Z,52.17
2023-04-05T15:00:52.172Z,52.33
2023-04-05T15:03:21.754Z,52.40
2023-04-05T15:05:51.080Z,52.47
2023-04-05T15:08:20.392Z,51.67
2023-04-05T15:10:50.347Z,51.87
2023-04-05T15:13:22.003Z,52.34
2023-04-05T15:15:53.103Z,52.05
2023-04-05T15:18:22.415Z,52.34
2023-04-05T15:20:53.411Z,52.19
2023-04-05T15:23:22.843Z,52.26
2023-04-05T15:25:52.378Z,52.25
2023-04-05T15:28:22.153Z,52.19
2023-04-05T15:30:54.233Z,52.00
2023-04-05T15:33:24.048Z,52.39
2023-04-05T15:35:53.830Z,52.24
2023-04-05T15:38:23.227Z,52.42
2023-04-05T15:40:53.357Z,51.96
2023-04-05T15:43:24.350Z,52.11
2023-04-05T15:45:57.895Z,52.00
2023-04-05T15:48:27.484Z,51.90
2023-04-05T15:50:57.181Z,52.28
2023-04-05T15:53:27.748Z,51.92
2023-04-05T15:55:58.445Z,51.31
2023-04-05T15:58:28.515Z,52.34
2023-04-05T16:00:59.422Z,52.42
2023-04-05T16:03:29.372Z,52.45
2023-04-05T16:05:59.485Z,52.44
2023-04-05T16:08:28.678Z,52.39
2023-04-05T16:10:58.431Z,52.20
2023-04-05T16:13:27.877Z,52.29
2023-04-05T16:15:57.725Z,52.15
2023-04-05T16:18:31.780Z,51.97
2023-04-05T16:21:01.470Z,51.91
2023-04-05T16:23:30.798Z,52.15
2023-04-05T16:26:00.306Z,52.02
2023-04-05T16:28:29.586Z,52.00
2023-04-05T16:31:00.144Z,51.92
2023-04-05T16:33:30.970Z,51.73
2023-04-05T16:36:00.827Z,51.88
2023-04-05T16:38:29.975Z,52.04
2023-04-05T16:41:00.008Z,51.71
2023-04-05T16:43:29.054Z,51.96
2023-04-05T16:45:58.838Z,52.05
2023-04-05T16:48:30.802Z,52.02
2023-04-05T16:51:00.879Z,52.09
2023-04-05T16:53:30.993Z,52.04
2023-04-05T16:56:00.723Z,52.33
2023-04-05T16:58:30.560Z,52.09
2023-04-05T17:01:00.636Z,51.90
2023-04-05T17:03:33.194Z,52.01
2023-04-05T17:06:03.311Z,51.83
2023-04-05T17:08:32.616Z,52.08
2023-04-05T17:11:02.086Z,52.19
2023-04-05T17:13:31.738Z,51.99
2023-04-05T17:16:01.864Z,52.02
2023-04-05T17:18:32.546Z,52.10
2023-04-05T17:21:02.399Z,52.14
2023-04-05T17:23:31.942Z,51.89
2023-04-05T17:26:01.617Z,51.81
2023-04-05T17:28:31.972Z,51.71
2023-04-05T17:31:01.776Z,51.84
2023-04-05T17:33:32.729Z,51.74
2023-04-05T17:36:03.134Z,51.79
2023-04-05T17:38:32.735Z,51.96
2023-04-05T17:41:03.267Z,51.90
2023-04-05T17:43:32.807Z,51.71
2023-04-05T17:46:03.321Z,51.82
2023-04-05T17:48:34.257Z,51.88
2023-04-05T17:51:07.910Z,51.81
2023-04-05T17:53:37.709Z,51.75
2023-04-05T17:56:07.130Z,51.90
2023-04-05T17:58:36.517Z,51.84
2023-04-05T18:01:06.182Z,51.87
2023-04-05T18:03:37.310Z,51.80
2023-04-05T18:06:08.054Z,51.84
2023-04-05T18:08:37.581Z,51.70
2023-04-05T18:11:06.968Z,51.96
2023-04-05T18:13:36.632Z,51.93
2023-04-05T18:16:06.055Z,51.95
2023-04-05T18:18:37.073Z,51.97
2023-04-05T18:21:08.170Z,52.10
2023-04-05T18:23:37.696Z,52.14
2023-04-05T18:26:08.213Z,51.97
2023-04-05T18:28:37.708Z,52.03
2023-04-05T18:31:10.324Z,52.06
2023-04-05T18:33:42.922Z,52.01
2023-04-05T18:36:14.524Z,52.03
2023-04-05T18:38:44.067Z,51.90
2023-04-05T18:41:15.290Z,51.94
2023-04-05T18:43:44.887Z,52.10
2023-04-05T18:46:18.640Z,52.04
2023-04-05T18:48:54.359Z,52.07
2023-04-05T18:51:27.806Z,51.96
2023-04-05T18:53:57.612Z,52.16
2023-04-05T18:56:28.053Z,51.93
2023-04-05T18:58:58.147Z,52.17
2023-04-05T19:01:27.856Z,52.12
2023-04-05T19:04:00.490Z,52.05
2023-04-05T19:06:30.551Z,52.00
2023-04-05T19:09:02.303Z,51.96
2023-04-05T19:11:31.949Z,51.96
2023-04-05T19:14:04.141Z,51.80
2023-04-05T19:16:34.154Z,52.00
2023-04-05T19:19:06.338Z,51.81
2023-04-05T19:21:38.120Z,51.92
2023-04-05T19:24:12.183Z,51.81
2023-04-05T19:26:48.287Z,51.87
2023-04-05T19:29:17.633Z,51.95
2023-04-05T19:31:49.110Z,51.84
2023-04-05T19:34:19.911Z,52.06
2023-04-05T19:36:49.846Z,51.84
2023-04-05T19:39:22.997Z,51.83
2023-04-05T19:41:55.045Z,51.83
2023-04-05T19:44:39.775Z,51.96
2023-04-05T19:47:11.611Z,51.89
2023-04-05T19:49:43.549Z,51.95
2023-04-05T19:52:36.438Z,51.96
2023-04-05T19:55:25.667Z,51.80
2023-04-05T19:57:57.308Z,52.18
2023-04-05T20:00:39.136Z,52.11
2023-04-05T20:03:29.077Z,52.02
2023-04-05T20:06:06.724Z,51.91
2023-04-05T20:08:38.831Z,51.95
2023-04-05T20:11:11.192Z,52.20
2023-04-05T20:13:50.786Z,52.00
2023-04-05T20:16:24.882Z,52.16
2023-04-05T20:18:55.702Z,52.00
2023-04-05T20:21:27.765Z,52.06
2023-04-05T20:23:58.965Z,52.23
2023-04-05T20:26:31.105Z,54.17
2023-04-05T20:29:06.955Z,52.86
2023-04-05T20:31:40.568Z,52.36
2023-04-05T20:34:14.184Z,52.62
2023-04-05T20:36:51.348Z,52.64
2023-04-05T20:39:24.723Z,52.54
2023-04-05T20:41:58.106Z,52.55
2023-04-05T20:44:32.971Z,52.66
2023-04-05T20:47:03.310Z,52.73
2023-04-05T20:49:34.802Z,52.53
2023-04-05T20:52:09.018Z,52.33
2023-04-05T20:54:39.423Z,52.58
2023-04-05T20:57:09.659Z,52.36
2023-04-05T20:59:39.547Z,52.57
2023-04-05T21:02:09.062Z,52.51
2023-04-05T21:04:38.757Z,52.82
2023-04-05T21:07:09.332Z,52.69
2023-04-05T21:09:38.958Z,52.78
2023-04-05T21:12:08.609Z,52.39
2023-04-05T21:14:38.010Z,52.15
2023-04-05T21:17:07.443Z,52.24
2023-04-05T21:19:37.016Z,52.93
2023-04-05T21:22:06.241Z,52.74
2023-04-05T21:24:37.248Z,52.48
2023-04-05T21:27:06.606Z,52.56
2023-04-05T21:29:36.121Z,52.48
2023-04-05T21:32:05.708Z,53.03
2023-04-05T21:34:35.311Z,53.04
2023-04-05T21:37:04.610Z,52.86
2023-04-05T21:39:34.056Z,54.20
2023-04-05T21:42:05.667Z,53.19
2023-04-05T21:44:35.321Z,53.02
2023-04-05T21:47:04.724Z,52.98
2023-04-05T21:49:34.227Z,53.84
2023-04-05T21:52:03.524Z,53.45
2023-04-05T21:54:33.378Z,55.26
2023-04-05T21:57:04.300Z,53.35
2023-04-05T21:59:33.954Z,53.45
2023-04-05T22:02:03.496Z,53.32
2023-04-05T22:04:33.294Z,52.71
2023-04-05T22:07:02.696Z,53.02
2023-04-05T22:09:32.764Z,55.19
2023-04-05T22:12:01.900Z,52.98
2023-04-05T22:14:32.984Z,52.98
2023-04-05T22:17:02.427Z,52.81
2023-04-05T22:19:32.066Z,52.88
2023-04-05T22:22:01.529Z,52.75
2023-04-05T22:24:31.331Z,52.81
2023-04-05T22:27:00.856Z,52.86
2023-04-05T22:29:32.005Z,52.77
2023-04-05T22:32:01.921Z,52.74
2023-04-05T22:34:31.902Z,53.37
2023-04-05T22:37:01.601Z,53.36
2023-04-05T22:39:31.273Z,53.34
2023-04-05T22:42:00.715Z,52.95
2023-04-05T22:44:34.011Z,53.28
2023-04-05T22:47:03.265Z,53.43
2023-04-05T22:49:33.751Z,53.04
2023-04-05T22:52:02.712Z,53.15
2023-04-05T22:54:32.349Z,53.32
2023-04-05T22:57:01.686Z,53.54
2023-04-05T22:59:32.596Z,53.51
2023-04-05T23:02:01.929Z,53.73
2023-04-05T23:04:31.517Z,53.60
2023-04-05T23:07:00.720Z,53.59
2023-04-05T23:09:30.314Z,53.67
2023-04-05T23:11:59.550Z,53.75
2023-04-05T23:14:29.056Z,53.51
2023-04-05T23:16:59.708Z,53.44
2023-04-05T23:19:29.239Z,53.80
2023-04-05T23:21:58.669Z,54.97
2023-04-05T23:24:28.310Z,54.38
2023-04-05T23:26:57.491Z,54.32
2023-04-05T23:29:27.327Z,53.92
2023-04-05T23:31:56.618Z,53.77
2023-04-05T23:34:28.195Z,53.90
2023-04-05T23:36:57.431Z,53.87
2023-04-05T23:39:27.071Z,54.20
2023-04-05T23:41:56.807Z,54.43
2023-04-05T23:44:26.380Z,54.25
2023-04-05T23:46:55.773Z,54.28
2023-04-05T23:49:28.195Z,54.77
2023-04-05T23:51:57.616Z,54.50
2023-04-05T23:54:27.091Z,54.20
2023-04-05T23:56:57.552Z,55.17
2023-04-05T23:59:27.285Z,55.25
